Time;durP1;ratioP1;P1;durP2;ratioP2;P2;SDS_P1;SDS_P2;PMS_P1;PMS_P2;Temp;Humidity;BMP_temperature;BMP_pressure;BME280_temperature;BME280_humidity;BME280_pressure;Samples;Min_cycle;Max_cycle;Signal;HPM_P1;HPM_P2
2023/04/17 00:00:11;;;;;;;32.50;18.10;;;;;;;8.55;89.19;101250.77;110810;1209;97654;-62
2023/04/17 00:02:38;;;;;;;38.90;18.10;;;;;;;8.55;89.20;101251.12;110796;1222;139234;-62
2023/04/17 00:05:05;;;;;;;36.60;18.90;;;;;;;8.56;89.20;101248.26;110861;1212;99912;-62
2023/04/17 00:07:33;;;;;;;37.00;17.10;;;;;;;8.54;89.07;101245.45;110882;1212;97705;-64
2023/04/17 00:09:58;;;;;;;33.70;17.90;;;;;;;8.54;89.15;101240.81;110759;1212;140387;-64
2023/04/17 00:12:23;;;;;;;38.20;17.70;;;;;;;8.52;89.14;101237.86;110913;1212;97974;-64
2023/04/17 00:14:49;;;;;;;37.00;18.00;;;;;;;8.51;89.17;101236.64;110829;1212;139380;-63
2023/04/17 00:17:14;;;;;;;30.40;16.50;;;;;;;8.49;89.28;101240.59;110853;1209;98871;-63
2023/04/17 00:19:39;;;;;;;35.10;17.50;;;;;;;8.47;89.13;101238.52;110936;1212;97636;-62
2023/04/17 00:22:04;;;;;;;28.40;16.30;;;;;;;8.45;89.14;101236.77;110782;1212;138751;-63
2023/04/17 00:24:30;;;;;;;34.10;16.70;;;;;;;8.44;89.23;101240.19;110916;1210;97684;-62
2023/04/17 00:26:56;;;;;;;30.70;17.30;;;;;;;8.44;89.33;101241.24;110756;1212;140319;-62
2023/04/17 00:29:21;;;;;;;29.80;16.00;;;;;;;8.44;89.35;101240.37;110959;1212;96489;-63
2023/04/17 00:31:47;;;;;;;32.90;16.60;;;;;;;8.43;89.30;101241.10;110962;1209;97686;-63
2023/04/17 00:34:12;;;;;;;31.80;17.80;;;;;;;8.43;89.37;101239.14;110733;1222;138474;-63
2023/04/17 00:36:37;;;;;;;31.10;15.60;;;;;;;8.45;89.48;101241.41;110904;1212;97640;-63
2023/04/17 00:39:02;;;;;;;29.40;16.50;;;;;;;8.44;89.38;101239.27;110871;1212;140373;-63
2023/04/17 00:41:27;;;;;;;32.00;15.80;;;;;;;8.43;89.41;101236.83;110821;1225;97553;-65
2023/04/17 00:43:53;;;;;;;33.80;16.50;;;;;;;8.39;89.34;101240.85;110819;1212;97609;-65
2023/04/17 00:46:18;;;;;;;31.70;16.30;;;;;;;8.35;89.35;101243.45;110794;1210;138508;-62
2023/04/17 00:48:43;;;;;;;25.70;14.80;;;;;;;8.33;89.51;101243.48;110962;1209;98508;-63
2023/04/17 00:51:09;;;;;;;27.20;15.40;;;;;;;8.32;89.40;101246.54;110811;1211;140706;-65
2023/04/17 00:53:35;;;;;;;27.70;15.60;;;;;;;8.28;89.45;101252.31;110819;1212;97569;-65
2023/04/17 00:56:04;;;;;;;31.60;16.30;;;;;;;8.27;89.55;101255.38;110957;1212;97885;-65
2023/04/17 00:58:30;;;;;;;29.50;15.60;;;;;;;8.24;89.45;101258.27;110822;1210;140074;-64
2023/04/17 01:00:55;;;;;;;33.60;16.80;;;;;;;8.22;89.59;101255.66;111092;1212;97619;-65
2023/04/17 01:03:21;;;;;;;35.00;16.40;;;;;;;8.21;89.64;101255.85;110830;1209;139106;-62
2023/04/17 01:05:50;;;;;;;31.80;19.10;;;;;;;8.20;89.61;101255.34;110853;1212;111322;-64
2023/04/17 01:08:16;;;;;;;31.80;16.50;;;;;;;8.19;89.75;101256.27;110906;1212;102020;-65
2023/04/17 01:10:41;;;;;;;36.40;16.50;;;;;;;8.18;89.76;101258.61;110725;1228;138712;-64
2023/04/17 01:13:07;;;;;;;30.50;15.70;;;;;;;8.18;89.72;101261.80;110925;1212;97583;-65
2023/04/17 01:15:34;;;;;;;30.10;16.80;;;;;;;8.13;89.67;101258.52;110707;1212;139907;-64
2023/04/17 01:18:00;;;;;;;34.30;16.80;;;;;;;8.10;89.66;101261.98;110917;1210;97603;-64
2023/04/17 01:20:28;;;;;;;29.00;15.80;;;;;;;8.10;89.84;101260.92;110870;1212;139373;-64
2023/04/17 01:22:54;;;;;;;28.80;16.70;;;;;;;8.09;89.81;101259.52;110881;1222;97635;-64
2023/04/17 01:25:20;;;;;;;29.60;16.30;;;;;;;8.11;90.04;101258.59;111006;1212;97757;-62
2023/04/17 01:27:45;;;;;;;34.00;16.60;;;;;;;8.11;89.92;101259.30;110807;1212;139489;-62
2023/04/17 01:30:12;;;;;;;37.00;16.40;;;;;;;8.09;89.83;101260.05;110907;1212;98022;-65
2023/04/17 01:32:37;;;;;;;34.40;16.10;;;;;;;8.06;89.82;101261.38;110838;1212;139230;-65
2023/04/17 01:35:03;;;;;;;37.70;17.40;;;;;;;8.06;90.00;101254.98;110989;1210;97760;-64
2023/04/17 01:37:28;;;;;;;33.70;17.60;;;;;;;8.07;90.02;101252.43;110822;1209;97581;-62
2023/04/17 01:39:54;;;;;;;36.60;16.60;;;;;;;8.07;89.98;101254.76;110820;1212;139173;-62
2023/04/17 01:42:21;;;;;;;30.00;17.00;;;;;;;8.06;90.01;101260.67;110778;1212;97754;-62
2023/04/17 01:44:46;;;;;;;28.00;15.60;;;;;;;8.07;90.09;101260.98;110771;1209;141506;-65
2023/04/17 01:47:12;;;;;;;33.40;16.60;;;;;;;8.03;89.97;101262.50;110946;1212;98905;-65
2023/04/17 01:49:37;;;;;;;36.50;16.30;;;;;;;8.01;89.98;101265.20;110850;1211;97684;-65
2023/04/17 01:52:02;;;;;;;40.30;17.70;;;;;;;7.96;89.87;101269.27;110817;1212;138920;-65
2023/04/17 01:54:28;;;;;;;28.90;16.20;;;;;;;7.89;89.98;101270.84;110952;1210;97600;-64
2023/04/17 01:56:53;;;;;;;33.00;16.90;;;;;;;7.87;89.99;101270.17;110727;1224;140610;-64
2023/04/17 01:59:18;;;;;;;34.70;17.10;;;;;;;7.84;90.05;101276.27;110962;1208;99075;-62
2023/04/17 02:01:44;;;;;;;37.50;18.50;;;;;;;7.81;90.18;101277.41;110835;1212;97798;-62
2023/04/17 02:04:09;;;;;;;37.20;17.10;;;;;;;7.80;90.19;101274.62;110750;1212;140837;-65
2023/04/17 02:06:35;;;;;;;38.30;18.30;;;;;;;7.76;90.13;101275.59;110968;1212;98982;-64
2023/04/17 02:09:00;;;;;;;36.00;18.00;;;;;;;7.78;90.31;101278.24;110811;1209;139496;-65
2023/04/17 02:11:26;;;;;;;37.30;17.40;;;;;;;7.78;90.27;101277.69;111001;1212;97659;-64
2023/04/17 02:13:52;;;;;;;45.70;18.10;;;;;;;7.76;90.26;101281.12;110849;1210;107925;-65
2023/04/17 02:16:20;;;;;;;40.00;18.40;;;;;;;7.75;90.19;101281.50;110803;1212;139628;-65
2023/04/17 02:18:46;;;;;;;38.40;18.30;;;;;;;7.74;90.33;101283.30;110884;1212;97624;-66
2023/04/17 02:21:11;;;;;;;37.00;17.70;;;;;;;7.75;90.41;101284.34;110813;1209;138599;-65
2023/04/17 02:23:37;;;;;;;33.10;16.60;;;;;;;7.74;90.34;101288.64;110932;1212;100532;-64
2023/04/17 02:26:02;;;;;;;40.10;18.00;;;;;;;7.68;90.31;101287.33;110815;1209;97834;-64
2023/04/17 02:28:27;;;;;;;39.30;18.40;;;;;;;7.65;90.30;101289.89;110897;1209;140270;-65
2023/04/17 02:30:53;;;;;;;34.80;16.90;;;;;;;7.65;90.43;101290.42;110909;1210;97740;-65
2023/04/17 02:33:18;;;;;;;32.90;16.20;;;;;;;7.67;90.53;101292.52;110759;1212;139171;-64
2023/04/17 02:35:43;;;;;;;38.10;18.20;;;;;;;7.66;90.48;101292.54;110944;1209;98895;-62
2023/04/17 02:38:09;;;;;;;40.70;18.80;;;;;;;7.66;90.61;101293.97;110895;1212;97580;-62
2023/04/17 02:40:34;;;;;;;40.40;17.90;;;;;;;7.65;90.44;101289.02;110717;1209;138866;-62
2023/04/17 02:42:59;;;;;;;40.80;18.80;;;;;;;7.58;90.36;101288.09;110891;1212;97662;-62
2023/04/17 02:45:26;;;;;;;38.70;19.20;;;;;;;7.57;90.65;101288.48;110858;1212;139454;-62
2023/04/17 02:47:51;;;;;;;47.30;19.40;;;;;;;7.56;90.52;101288.13;110915;1209;99851;-65
2023/04/17 02:50:17;;;;;;;41.00;19.90;;;;;;;7.56;90.75;101288.30;110876;1212;97613;-65
2023/04/17 02:52:42;;;;;;;36.00;17.10;;;;;;;7.59;90.83;101283.80;110871;1211;140231;-65
2023/04/17 02:55:08;;;;;;;39.00;17.60;;;;;;;7.58;90.60;101287.55;110909;1212;97661;-65
2023/04/17 02:57:33;;;;;;;40.60;17.00;;;;;;;7.57;90.72;101287.94;110991;1212;138616;-65
2023/04/17 03:00:00;;;;;;;41.80;17.70;;;;;;;7.57;90.74;101294.14;110979;1208;97710;-65
2023/04/17 03:02:27;;;;;;;35.20;17.00;;;;;;;7.53;90.69;101294.23;110867;1212;140335;-64
2023/04/17 03:04:52;;;;;;;42.20;19.20;;;;;;;7.49;90.76;101295.57;110993;1212;97824;-64
2023/04/17 03:07:18;;;;;;;38.70;18.60;;;;;;;7.48;90.71;101299.30;111029;1212;99231;-65
2023/04/17 03:09:47;;;;;;;40.20;18.80;;;;;;;7.50;90.78;101300.16;110812;1214;139245;-65
2023/04/17 03:12:14;;;;;;;37.50;17.70;;;;;;;7.49;90.85;101302.50;110969;1206;98091;-65
2023/04/17 03:14:40;;;;;;;39.40;17.40;;;;;;;7.47;90.71;101302.36;110857;1210;138996;-65
2023/04/17 03:17:06;;;;;;;37.40;17.00;;;;;;;7.44;90.80;101306.33;110998;1206;96846;-65
2023/04/17 03:19:32;;;;;;;34.90;15.50;;;;;;;7.42;90.84;101304.60;111033;1212;97676;-64
2023/04/17 03:21:57;;;;;;;28.20;14.30;;;;;;;7.41;90.88;101304.25;110992;1212;139076;-65
2023/04/17 03:24:24;;;;;;;29.80;15.90;;;;;;;7.40;90.91;101304.28;111007;1211;98062;-63
2023/04/17 03:26:50;;;;;;;29.70;15.20;;;;;;;7.39;90.87;101303.05;111008;1212;138848;-63
2023/04/17 03:29:15;;;;;;;34.10;14.80;;;;;;;7.39;91.03;101308.21;111030;1225;97602;-63
2023/04/17 03:31:40;;;;;;;31.40;14.90;;;;;;;7.38;91.03;101307.87;110880;1206;100597;-63
2023/04/17 03:34:06;;;;;;;35.30;16.00;;;;;;;7.37;91.06;101308.42;110901;1212;138707;-63
2023/04/17 03:36:31;;;;;;;33.20;14.50;;;;;;;7.38;91.05;101308.05;111060;1212;97701;-63
2023/04/17 03:38:57;;;;;;;31.20;14.60;;;;;;;7.35;91.04;101312.19;110888;1218;138738;-63
2023/04/17 03:41:22;;;;;;;29.00;14.10;;;;;;;7.35;91.11;101309.89;111007;1215;97935;-63
2023/04/17 03:43:47;;;;;;;28.30;13.70;;;;;;;7.34;91.04;101312.77;110916;1210;97757;-63
2023/04/17 03:46:13;;;;;;;33.40;14.90;;;;;;;7.35;91.15;101315.74;110911;1206;138594;-63
2023/04/17 03:48:38;;;;;;;30.10;15.30;;;;;;;7.37;91.19;101315.36;110993;1212;97680;-63
2023/04/17 03:51:03;;;;;;;27.00;13.90;;;;;;;7.39;91.21;101314.61;110964;1218;139726;-63
2023/04/17 03:53:29;;;;;;;30.40;14.90;;;;;;;7.37;91.03;101310.38;110887;1206;108125;-63
2023/04/17 03:55:55;;;;;;;31.80;14.00;;;;;;;7.32;90.96;101315.80;110961;1207;97636;-63
2023/04/17 03:58:20;;;;;;;26.90;14.40;;;;;;;7.31;91.14;101316.38;110918;1206;140647;-63
2023/04/17 04:00:47;;;;;;;30.20;15.40;;;;;;;7.30;91.09;101318.34;110957;1212;98821;-63
2023/04/17 04:03:13;;;;;;;30.10;15.60;;;;;;;7.29;91.16;101319.42;110833;1206;140695;-63
2023/04/17 04:05:38;;;;;;;31.90;15.60;;;;;;;7.31;91.31;101318.50;110966;1212;97788;-63
2023/04/17 04:08:03;;;;;;;33.90;15.30;;;;;;;7.32;91.27;101320.26;110951;1222;111715;-63
2023/04/17 04:10:31;;;;;;;36.90;16.80;;;;;;;7.30;91.09;101320.12;110816;1206;140506;-63
2023/04/17 04:12:56;;;;;;;30.10;14.90;;;;;;;7.27;91.17;101322.83;110976;1212;97634;-63
2023/04/17 04:15:22;;;;;;;31.30;15.80;;;;;;;7.25;91.13;101325.89;110853;1212;138472;-63
2023/04/17 04:17:47;;;;;;;31.20;15.20;;;;;;;7.25;91.30;101328.04;110918;1212;98076;-63
2023/04/17 04:20:12;;;;;;;29.70;15.90;;;;;;;7.25;91.12;101329.27;111023;1207;97576;-63
2023/04/17 04:22:37;;;;;;;30.80;14.10;;;;;;;7.24;91.18;101330.55;110796;1221;138875;-63
2023/04/17 04:25:05;;;;;;;27.80;14.80;;;;;;;7.23;91.21;101338.03;110969;1206;97598;-63
2023/04/17 04:27:31;;;;;;;27.50;15.20;;;;;;;7.23;91.28;101339.80;110974;1212;138468;-63
2023/04/17 04:30:00;;;;;;;29.60;16.00;;;;;;;7.24;91.25;101340.67;111020;1206;97614;-63
2023/04/17 04:32:26;;;;;;;24.40;14.40;;;;;;;7.23;91.20;101341.41;110880;1212;139196;-68
2023/04/17 04:34:55;;;;;;;30.80;14.80;;;;;;;7.20;91.17;101344.12;110938;1211;98069;-64
2023/04/17 04:37:20;;;;;;;31.10;15.90;;;;;;;7.15;91.16;101345.63;111014;1210;98034;-63
2023/04/17 04:39:52;;;;;;;28.20;16.60;;;;;;;7.12;91.19;101353.15;110840;1212;139651;-63
2023/04/17 04:42:21;;;;;;;29.40;16.10;;;;;;;7.12;91.18;101354.93;110961;1212;108082;-63
2023/04/17 04:44:47;;;;;;;35.80;17.20;;;;;;;7.13;91.39;101356.88;110872;1212;139943;-63
2023/04/17 04:47:13;;;;;;;34.60;17.20;;;;;;;7.13;91.33;101356.88;111004;1212;96519;-63
2023/04/17 04:49:38;;;;;;;31.30;16.40;;;;;;;7.15;91.40;101355.95;110895;1212;97812;-63
2023/04/17 04:52:04;;;;;;;34.10;17.80;;;;;;;7.16;91.43;101356.46;110878;1212;138843;-64
2023/04/17 04:54:29;;;;;;;39.10;16.60;;;;;;;7.15;91.40;101359.84;110922;1212;97630;-63
2023/04/17 04:56:55;;;;;;;32.60;17.00;;;;;;;7.18;91.55;101358.91;110904;1212;140360;-63
2023/04/17 04:59:21;;;;;;;31.00;18.10;;;;;;;7.21;91.48;101363.30;111030;1206;100210;-63
2023/04/17 05:01:46;;;;;;;33.40;17.60;;;;;;;7.21;91.41;101363.31;110917;1212;98624;-63
2023/04/17 05:04:12;;;;;;;36.70;18.60;;;;;;;7.21;91.38;101366.67;110917;1212;141126;-63
2023/04/17 05:06:37;;;;;;;32.10;17.30;;;;;;;7.20;91.37;101367.77;110947;1206;97405;-63
2023/04/17 05:09:03;;;;;;;32.20;17.20;;;;;;;7.20;91.50;101371.15;110860;1212;140838;-63
2023/04/17 05:11:28;;;;;;;39.10;18.80;;;;;;;7.22;91.53;101374.47;110940;1212;97696;-63
2023/04/17 05:13:53;;;;;;;39.60;19.90;;;;;;;7.24;91.58;101371.95;110981;1206;96574;-63
2023/04/17 05:16:19;;;;;;;38.20;19.60;;;;;;;7.20;91.33;101373.99;110873;1206;139133;-63
2023/04/17 05:18:46;;;;;;;38.90;18.50;;;;;;;7.16;91.44;101371.91;110890;1210;97752;-63
2023/04/17 05:21:12;;;;;;;42.30;19.80;;;;;;;7.18;91.54;101375.98;110826;1206;139374;-63
2023/04/17 05:23:37;;;;;;;37.10;18.80;;;;;;;7.18;91.62;101377.92;111043;1206;97580;-63
2023/04/17 05:26:02;;;;;;;44.00;21.20;;;;;;;7.14;91.50;101373.73;110930;1212;98923;-65
2023/04/17 05:28:28;;;;;;;41.50;19.40;;;;;;;7.16;91.66;101375.30;110824;1212;139363;-62
2023/04/17 05:30:54;;;;;;;39.90;21.10;;;;;;;7.20;91.80;101377.00;110899;1212;97588;-63
2023/04/17 05:33:19;;;;;;;41.90;21.50;;;;;;;7.23;91.79;101374.64;110696;1212;140056;-64
2023/04/17 05:35:45;;;;;;;42.20;20.00;;;;;;;7.26;91.73;101381.16;110850;1211;99006;-64
2023/04/17 05:38:10;;;;;;;39.40;20.00;;;;;;;7.24;91.48;101381.91;110853;1222;97590;-64
2023/04/17 05:40:35;;;;;;;42.60;20.50;;;;;;;7.19;91.48;101381.65;110753;1209;139303;-64
2023/04/17 05:43:09;;;;;;;36.10;19.40;;;;;;;7.16;91.62;101380.09;110854;1206;97816;-64
2023/04/17 05:45:35;;;;;;;40.30;19.10;;;;;;;7.19;91.74;101380.94;110642;1212;139115;-64
2023/04/17 05:48:00;;;;;;;41.80;21.20;;;;;;;7.18;91.66;101380.07;110754;1211;97737;-64
2023/04/17 05:50:26;;;;;;;40.50;20.30;;;;;;;7.16;91.64;101379.91;110982;1211;141233;-63
2023/04/17 05:52:53;;;;;;;41.70;20.00;;;;;;;7.14;91.62;101378.53;113301;1206;95630;-64
2023/04/17 05:55:19;;;;;;;40.30;20.50;;;;;;;7.10;91.55;101381.44;113210;1206;96180;-64
2023/04/17 05:57:45;;;;;;;43.00;20.40;;;;;;;7.08;91.65;101378.65;113089;1205;139580;-64
2023/04/17 06:00:12;;;;;;;36.40;19.40;;;;;;;7.09;91.83;101383.05;112075;1210;97715;-64
2023/04/17 06:02:39;;;;;;;42.00;19.30;;;;;;;7.13;91.85;101381.75;111000;1211;140730;-64
2023/04/17 06:05:06;;;;;;;39.80;18.50;;;;;;;7.13;91.72;101379.80;111037;1212;97757;-64
2023/04/17 06:07:37;;;;;;;44.20;19.20;;;;;;;7.12;91.80;101385.15;111033;1211;97664;-65
2023/04/17 06:10:02;;;;;;;;;;;;;;;7.12;91.79;101383.01;111035;1210;139668;-64
2023/04/17 06:12:27;;;;;;;46.50;19.40;;;;;;;7.11;91.84;101391.91;110966;1206;98053;-64
2023/04/17 06:14:53;;;;;;;43.00;17.80;;;;;;;7.13;92.00;101394.54;110955;1206;140015;-64
2023/04/17 06:17:19;;;;;;;50.60;21.20;;;;;;;7.13;91.91;101398.80;111056;1211;99010;-64
2023/04/17 06:19:44;;;;;;;41.40;20.90;;;;;;;7.15;92.07;101397.00;111000;1211;98242;-64
2023/04/17 06:22:09;;;;;;;46.40;20.40;;;;;;;7.15;91.92;101396.12;110880;1211;139166;-64
2023/04/17 06:24:35;;;;;;;44.60;21.10;;;;;;;7.15;92.06;101404.63;110901;1212;97590;-64
2023/04/17 06:27:02;;;;;;;39.70;20.10;;;;;;;7.16;92.13;101400.89;110856;1211;139673;-63
2023/04/17 06:29:28;;;;;;;33.80;18.40;;;;;;;7.16;91.95;101403.02;111091;1206;110927;-64
2023/04/17 06:31:55;;;;;;;39.20;19.40;;;;;;;7.11;91.86;101406.14;113236;1211;96975;-63
2023/04/17 06:34:21;;;;;;;46.90;20.20;;;;;;;7.10;92.02;101409.16;113157;1206;139029;-64
2023/04/17 06:36:47;;;;;;;39.60;20.20;;;;;;;7.15;92.19;101412.64;113296;1206;95543;-64
2023/04/17 06:39:12;;;;;;;44.10;19.40;;;;;;;7.19;92.14;101413.30;113176;1206;139272;-63
2023/04/17 06:41:38;;;;;;;36.30;18.30;;;;;;;7.16;92.05;101415.27;112679;1206;97589;-63
2023/04/17 06:44:03;;;;;;;54.10;20.00;;;;;;;7.15;91.91;101422.77;110911;1206;97658;-64
2023/04/17 06:46:29;;;;;;;39.70;19.70;;;;;;;7.16;92.14;101421.52;110816;1219;138594;-64
2023/04/17 06:48:56;;;;;;;42.00;19.00;;;;;;;7.21;92.13;101422.31;111041;1206;98118;-64
2023/04/17 06:51:24;;;;;;;46.10;20.70;;;;;;;7.23;92.12;101425.66;110884;1206;140080;-64
2023/04/17 06:53:49;;;;;;;39.50;18.10;;;;;;;7.27;92.30;101430.21;110991;1212;97770;-64
2023/04/17 06:56:15;;;;;;;44.90;20.60;;;;;;;7.34;92.29;101431.16;111078;1206;96517;-64
2023/04/17 06:58:43;;;;;;;54.50;21.40;;;;;;;7.37;92.34;101430.56;111009;1206;140293;-64
2023/04/17 07:01:12;;;;;;;39.60;19.30;;;;;;;7.40;92.32;101436.55;111046;1212;107745;-64
2023/04/17 07:03:39;;;;;;;51.20;19.10;;;;;;;7.38;92.13;101441.94;110818;1206;138898;-64
2023/04/17 07:06:07;;;;;;;47.80;20.00;;;;;;;7.39;92.26;101445.98;111065;1210;97627;-66
2023/04/17 07:08:32;;;;;;;49.30;19.30;;;;;;;7.41;92.31;101451.12;111077;1208;139221;-64
2023/04/17 07:10:58;;;;;;;42.20;18.80;;;;;;;7.44;92.30;101453.73;110905;1212;97806;-64
2023/04/17 07:13:23;;;;;;;44.30;19.10;;;;;;;7.45;92.29;101455.50;111811;1210;97698;-64
2023/04/17 07:15:53;;;;;;;41.90;19.30;;;;;;;7.42;92.12;101461.05;110875;1209;139224;-64
2023/04/17 07:18:18;;;;;;;41.10;18.50;;;;;;;7.38;92.06;101463.63;110999;1212;112316;-66
2023/04/17 07:20:44;;;;;;;36.80;17.50;;;;;;;7.37;92.15;101463.64;110843;1206;140153;-64
2023/04/17 07:23:09;;;;;;;40.00;19.20;;;;;;;7.39;92.28;101464.48;110983;1211;97635;-64
2023/04/17 07:25:34;;;;;;;42.20;19.00;;;;;;;7.44;92.38;101466.02;110977;1206;97636;-64
2023/04/17 07:27:59;;;;;;;41.60;17.50;;;;;;;7.52;92.40;101467.47;110954;1212;139922;-65
2023/04/17 07:30:25;;;;;;;41.30;18.70;;;;;;;7.56;92.25;101475.93;110979;1211;97686;-64
2023/04/17 07:32:51;;;;;;;41.30;18.20;;;;;;;7.57;92.13;101478.59;110794;1211;139273;-64
2023/04/17 07:35:16;;;;;;;39.00;16.20;;;;;;;7.62;92.31;101481.52;111008;1212;99608;-64
2023/04/17 07:37:41;;;;;;;34.60;16.40;;;;;;;7.67;92.31;101483.92;110970;1208;97591;-65
2023/04/17 07:40:09;;;;;;;34.10;17.10;;;;;;;7.64;92.08;101488.42;110850;1213;139086;-65
2023/04/17 07:42:34;;;;;;;35.50;17.90;;;;;;;7.64;92.07;101496.97;111015;1212;97592;-63
2023/04/17 07:44:59;;;;;;;37.20;18.40;;;;;;;7.58;91.91;101494.05;110866;1209;139333;-64
2023/04/17 07:47:26;;;;;;;36.20;16.70;;;;;;;7.52;91.87;101495.23;111013;1211;97707;-64
2023/04/17 07:49:51;;;;;;;35.00;17.70;;;;;;;7.52;91.98;101499.31;110964;1219;98556;-65
2023/04/17 07:52:16;;;;;;;30.30;16.50;;;;;;;7.54;92.03;101501.59;110851;1211;140032;-64
2023/04/17 07:54:43;;;;;;;37.60;17.90;;;;;;;7.57;92.06;101500.80;110961;1206;102363;-64
2023/04/17 07:57:10;;;;;;;31.60;16.80;;;;;;;7.62;92.04;101502.33;110944;1206;138886;-65
2023/04/17 07:59:35;;;;;;;33.30;16.40;;;;;;;7.63;91.81;101502.48;110970;1211;97707;-64
2023/04/17 08:02:02;;;;;;;40.70;17.60;;;;;;;7.63;91.84;101501.96;110922;1207;97622;-65
2023/04/17 08:04:28;;;;;;;34.00;17.20;;;;;;;7.67;91.94;101502.23;110108;1212;138577;-65
2023/04/17 08:06:53;;;;;;;38.40;18.50;;;;;;;7.72;91.87;101502.52;110660;1211;97703;-63
2023/04/17 08:09:21;;;;;;;35.10;17.50;;;;;;;7.72;91.89;101502.33;110590;1211;138595;-64
2023/04/17 08:11:46;;;;;;;33.30;16.30;;;;;;;7.80;92.12;101501.62;110782;1210;97627;-64
2023/04/17 08:14:11;;;;;;;34.70;17.20;;;;;;;7.92;92.17;101506.38;110652;1218;98528;-64
2023/04/17 08:16:36;;;;;;;35.00;17.20;;;;;;;8.09;92.42;101511.20;110558;1206;140591;-64
2023/04/17 08:19:02;;;;;;;33.90;15.90;;;;;;;8.24;92.08;101509.30;110755;1206;97747;-64
2023/04/17 08:21:27;;;;;;;32.90;17.20;;;;;;;8.27;91.84;101514.06;110672;1211;138586;-63
2023/04/17 08:23:52;;;;;;;31.20;16.40;;;;;;;8.25;91.71;101514.29;110675;1206;97660;-64
2023/04/17 08:26:19;;;;;;;29.70;15.40;;;;;;;8.33;91.92;101520.72;110663;1211;97792;-65
2023/04/17 08:28:45;;;;;;;31.60;16.30;;;;;;;8.41;91.78;101524.50;110519;1212;138875;-63
2023/04/17 08:31:11;;;;;;;35.90;16.40;;;;;;;8.50;91.88;101525.56;110725;1215;98405;-65
2023/04/17 08:33:36;;;;;;;37.50;16.90;;;;;;;8.57;91.83;101527.54;110619;1206;140819;-65
2023/04/17 08:36:02;;;;;;;35.00;15.70;;;;;;;8.63;91.73;101527.42;110700;1211;97576;-62
2023/04/17 08:38:28;;;;;;;34.80;16.00;;;;;;;8.60;91.43;101533.90;110725;1206;97622;-63
2023/04/17 08:40:58;;;;;;;31.80;17.10;;;;;;;8.63;91.45;101532.59;110750;1211;98675;-66
2023/04/17 08:43:27;;;;;;;33.10;16.30;;;;;;;8.63;91.45;101530.27;110650;1206;108033;-65
2023/04/17 08:45:54;;;;;;;32.30;16.50;;;;;;;8.72;91.66;101532.03;110692;1212;138627;-65
2023/04/17 08:48:20;;;;;;;29.40;15.70;;;;;;;8.88;91.86;101534.02;110756;1206;100012;-65
2023/04/17 08:50:47;;;;;;;34.80;17.00;;;;;;;8.93;91.45;101540.85;110634;1205;138985;-65
2023/04/17 08:53:14;;;;;;;30.80;16.60;;;;;;;8.91;91.17;101540.55;110888;1211;97811;-64
2023/04/17 08:55:39;;;;;;;32.70;18.20;;;;;;;8.92;91.10;101539.79;110822;1206;97601;-64
2023/04/17 08:58:08;;;;;;;31.40;17.00;;;;;;;8.97;91.23;101537.91;110644;1211;140575;-63
2023/04/17 09:00:36;;;;;;;35.10;18.80;;;;;;;9.11;91.35;101540.08;111536;1206;111221;-65
2023/04/17 09:03:06;;;;;;;37.40;19.20;;;;;;;9.29;91.53;101542.33;110825;1205;139478;-63
2023/04/17 09:05:33;;;;;;;40.40;19.40;;;;;;;9.43;91.32;101544.33;110846;1211;106903;-63
2023/04/17 09:08:25;;;;;;;38.30;17.80;;;;;;;9.58;91.47;101541.61;113164;1205;95524;-64
2023/04/17 09:10:53;;;;;;;44.30;19.80;;;;;;;9.75;91.29;101540.48;110713;1221;139036;-62
2023/04/17 09:13:21;;;;;;;34.40;18.80;;;;;;;9.81;90.91;101539.42;110760;1205;110685;-63
2023/04/17 09:16:02;;;;;;;36.50;17.00;;;;;;;9.79;90.67;101545.04;110698;1207;139437;-63
2023/04/17 09:18:31;;;;;;;30.10;16.90;;;;;;;9.78;90.58;101548.80;110911;1228;107970;-64
2023/04/17 09:20:58;;;;;;;37.40;17.30;;;;;;;9.82;90.52;101549.06;110714;1211;139423;-64
2023/04/17 09:23:25;;;;;;;32.70;17.60;;;;;;;9.75;89.99;101547.08;110815;1210;99689;-65
2023/04/17 09:26:08;;;;;;;30.90;16.00;;;;;;;9.71;90.04;101545.20;110734;1209;96441;-63
2023/04/17 09:28:38;;;;;;;28.70;16.70;;;;;;;9.69;89.86;101549.55;110582;1211;140923;-63
2023/04/17 09:31:25;;;;;;;27.80;16.00;;;;;;;9.66;89.72;101550.52;110796;1205;108669;-64
2023/04/17 09:34:00;;;;;;;34.50;16.00;;;;;;;9.67;89.67;101552.12;110690;1211;139476;-63
2023/04/17 09:36:29;;;;;;;30.00;16.50;;;;;;;9.65;89.37;101552.32;110798;1206;97711;-64
2023/04/17 09:38:54;;;;;;;29.30;15.70;;;;;;;9.69;89.32;101554.20;110737;1212;140586;-64
2023/04/17 09:41:28;;;;;;;26.90;15.20;;;;;;;9.67;89.02;101552.63;110880;1206;97638;-64
2023/04/17 09:44:04;;;;;;;26.00;15.60;;;;;;;9.67;89.02;101553.34;110915;1211;107898;-64
2023/04/17 09:46:41;;;;;;;31.10;15.60;;;;;;;9.74;89.08;101560.33;110757;1206;140257;-63
2023/04/17 09:49:41;;;;;;;32.70;15.10;;;;;;;9.81;89.00;101556.92;110937;1211;97593;-64
2023/04/17 09:52:06;;;;;;;30.70;16.10;;;;;;;9.90;88.85;101557.59;110700;1211;138733;-63
2023/04/17 09:54:36;;;;;;;27.30;16.00;;;;;;;9.91;88.73;101557.73;110830;1205;97597;-64
2023/04/17 09:57:03;;;;;;;24.80;13.50;;;;;;;9.94;88.52;101561.40;110675;1210;139354;-64
2023/04/17 09:59:31;;;;;;;28.30;14.40;;;;;;;9.98;88.43;101560.06;110791;1211;97584;-64
2023/04/17 10:01:57;;;;;;;29.20;14.40;;;;;;;9.98;88.14;101555.93;110926;1211;97700;-65
2023/04/17 10:04:22;;;;;;;25.00;15.00;;;;;;;9.93;87.61;101555.89;110618;1206;139321;-65
2023/04/17 10:06:49;;;;;;;26.70;14.30;;;;;;;9.97;88.01;101557.77;110693;1210;97373;-65
2023/04/17 10:09:14;;;;;;;28.50;15.90;;;;;;;10.08;87.99;101556.40;110554;1211;139617;-64
2023/04/17 10:11:42;;;;;;;26.00;14.50;;;;;;;10.18;87.63;101556.86;110638;1211;97725;-64
2023/04/17 10:14:18;;;;;;;23.30;13.00;;;;;;;10.22;87.50;101561.05;110754;1211;99142;-64
2023/04/17 10:16:46;;;;;;;25.80;15.10;;;;;;;10.30;87.29;101558.87;110602;1206;139352;-64
2023/04/17 10:19:30;;;;;;;33.50;15.90;;;;;;;10.34;87.26;101560.00;110762;1211;107356;-64
2023/04/17 10:22:14;;;;;;;26.30;14.00;;;;;;;10.40;86.99;101563.36;110707;1206;140430;-66
2023/04/17 10:25:12;;;;;;;29.20;16.50;;;;;;;10.49;86.70;101564.36;110829;1211;97578;-65
2023/04/17 10:27:40;;;;;;;27.70;15.20;;;;;;;10.54;86.56;101566.55;110576;1211;139253;-64
2023/04/17 10:30:12;;;;;;;24.60;14.10;;;;;;;10.66;86.27;101560.48;110968;1211;99815;-63
2023/04/17 10:32:40;;;;;;;35.20;18.60;;;;;;;10.77;86.35;101558.58;110812;1211;139579;-63
2023/04/17 10:35:15;;;;;;;28.90;16.50;;;;;;;10.93;86.23;101551.81;110719;1211;97641;-63
2023/04/17 10:37:49;;;;;;;28.20;15.80;;;;;;;10.97;85.50;101541.14;110771;1211;97641;-63
2023/04/17 10:40:21;;;;;;;26.50;13.60;;;;;;;10.96;85.27;101542.44;110649;1205;139120;-64
2023/04/17 10:43:16;;;;;;;29.20;14.20;;;;;;;11.05;85.42;101541.79;110630;1215;100035;-64
2023/04/17 10:46:02;;;;;;;25.60;13.60;;;;;;;11.19;85.30;101540.80;110672;1209;139543;-64
2023/04/17 10:48:40;;;;;;;25.60;14.70;;;;;;;11.24;84.89;101543.34;110844;1211;97565;-64
2023/04/17 10:51:25;;;;;;;21.90;13.00;;;;;;;11.27;84.83;101538.75;110723;1205;138960;-64
2023/04/17 10:53:58;;;;;;;21.60;12.70;;;;;;;11.29;84.42;101537.79;110846;1211;111385;-64
2023/04/17 10:56:25;;;;;;;22.40;13.50;;;;;;;11.30;84.47;101540.27;110889;1206;99495;-64
2023/04/17 10:58:58;;;;;;;19.20;12.80;;;;;;;11.27;83.88;101536.98;110722;1211;139195;-65
2023/04/17 11:01:27;;;;;;;21.90;13.20;;;;;;;11.19;83.76;101540.45;110822;1211;98413;-65
2023/04/17 11:03:53;;;;;;;25.70;13.20;;;;;;;11.15;83.77;101541.46;110692;1211;139535;-65